sensor_id;sensor_type;location;lat;lon;timestamp;P1;durP1;ratioP1;P2;durP2;ratioP2
44430;SDS011;30135;47.866;-4.222;2023-02-03T10:53:33;13.80;;;2.72;;
44430;SDS011;30135;47.866;-4.222;2023-02-03T10:56:34;15.18;;;3.28;;
44430;SDS011;30135;47.866;-4.222;2023-02-03T10:59:30;5.80;;;2.78;;
44430;SDS011;30135;47.866;-4.222;2023-02-03T11:02:27;5.45;;;2.22;;
44430;SDS011;30135;47.866;-4.222;2023-02-03T11:08:01;13.85;;;1.65;;
44430;SDS011;30135;47.866;-4.222;2023-02-03T11:10:48;8.98;;;1.90;;
44430;SDS011;30135;47.866;-4.222;2023-02-03T11:13:35;9.70;;;2.17;;
44430;SDS011;30135;47.866;-4.222;2023-02-03T11:16:21;5.55;;;1.73;;
44430;SDS011;30135;47.866;-4.222;2023-02-03T11:19:18;3.25;;;2.22;;
44430;SDS011;30135;47.866;-4.222;2023-02-03T11:22:07;5.60;;;1.40;;
44430;SDS011;30135;47.866;-4.222;2023-02-03T11:24:53;6.43;;;1.80;;
44430;SDS011;30135;47.866;-4.222;2023-02-03T11:27:40;3.67;;;1.60;;
44430;SDS011;30135;47.866;-4.222;2023-02-03T11:30:27;3.92;;;1.20;;
44430;SDS011;30135;47.866;-4.222;2023-02-03T11:33:17;3.65;;;1.52;;
44430;SDS011;30135;47.866;-4.222;2023-02-03T11:36:05;5.30;;;1.20;;
44430;SDS011;30135;47.866;-4.222;2023-02-03T11:39:08;5.05;;;1.27;;
44430;SDS011;30135;47.866;-4.222;2023-02-03T11:42:20;2.67;;;1.02;;
44430;SDS011;30135;47.866;-4.222;2023-02-03T11:45:57;6.38;;;1.40;;
44430;SDS011;30135;47.866;-4.222;2023-02-03T11:48:36;2.42;;;1.25;;
44430;SDS011;30135;47.866;-4.222;2023-02-03T11:54:51;2.25;;;0.57;;
44430;SDS011;30135;47.866;-4.222;2023-02-03T11:58:12;0.30;;;0.20;;
44430;SDS011;30135;47.866;-4.222;2023-02-03T12:08:16;3.13;;;0.40;;
44430;SDS011;30135;47.866;-4.222;2023-02-03T12:27:45;0.40;;;0.20;;
44430;SDS011;30135;47.866;-4.222;2023-02-03T12:30:46;1.58;;;0.38;;
44430;SDS011;30135;47.866;-4.222;2023-02-03T12:33:46;1.92;;;0.57;;
44430;SDS011;30135;47.866;-4.222;2023-02-03T12:36:56;1.88;;;0.50;;
44430;SDS011;30135;47.866;-4.222;2023-02-03T12:40:04;3.13;;;1.17;;
44430;SDS011;30135;47.866;-4.222;2023-02-03T12:46:39;6.93;;;2.40;;
44430;SDS011;30135;47.866;-4.222;2023-02-03T12:49:44;2.70;;;1.70;;
44430;SDS011;30135;47.866;-4.222;2023-02-03T12:52:44;4.82;;;1.67;;
44430;SDS011;30135;47.866;-4.222;2023-02-03T12:56:01;2.60;;;1.10;;
44430;SDS011;30135;47.866;-4.222;2023-02-03T12:58:56;5.53;;;1.42;;
44430;SDS011;30135;47.866;-4.222;2023-02-03T13:02:17;2.92;;;0.60;;
44430;SDS011;30135;47.866;-4.222;2023-02-03T13:05:23;4.63;;;1.10;;
44430;SDS011;30135;47.866;-4.222;2023-02-03T13:08:30;1.88;;;0.70;;
44430;SDS011;30135;47.866;-4.222;2023-02-03T13:11:23;2.80;;;0.95;;
44430;SDS011;30135;47.866;-4.222;2023-02-03T13:14:22;4.20;;;1.35;;
44430;SDS011;30135;47.866;-4.222;2023-02-03T13:17:40;9.75;;;0.68;;
44430;SDS011;30135;47.866;-4.222;2023-02-03T13:20:35;6.25;;;1.38;;
44430;SDS011;30135;47.866;-4.222;2023-02-03T13:23:22;3.05;;;1.05;;
44430;SDS011;30135;47.866;-4.222;2023-02-03T13:43:16;7.72;;;0.50;;
44430;SDS011;30135;47.866;-4.222;2023-02-03T13:46:21;1.35;;;0.30;;
44430;SDS011;30135;47.866;-4.222;2023-02-03T13:49:16;0.85;;;0.40;;
44430;SDS011;30135;47.866;-4.222;2023-02-03T13:53:00;1.33;;;0.30;;
44430;SDS011;30135;47.866;-4.222;2023-02-03T13:55:39;2.60;;;0.52;;
44430;SDS011;30135;47.866;-4.222;2023-02-03T14:05:04;3.15;;;0.57;;
44430;SDS011;30135;47.866;-4.222;2023-02-03T14:17:14;2.75;;;0.52;;
44430;SDS011;30135;47.866;-4.222;2023-02-03T14:26:14;1.55;;;0.40;;
44430;SDS011;30135;47.866;-4.222;2023-02-03T14:29:07;3.45;;;0.50;;
44430;SDS011;30135;47.866;-4.222;2023-02-03T14:31:52;3.33;;;0.40;;
44430;SDS011;30135;47.866;-4.222;2023-02-03T14:34:41;3.65;;;0.68;;
44430;SDS011;30135;47.866;-4.222;2023-02-03T14:42:42;2.05;;;0.65;;
44430;SDS011;30135;47.866;-4.222;2023-02-03T14:51:07;1.60;;;0.20;;
44430;SDS011;30135;47.866;-4.222;2023-02-03T14:59:55;2.40;;;0.70;;
44430;SDS011;30135;47.866;-4.222;2023-02-03T15:02:26;2.75;;;0.30;;
44430;SDS011;30135;47.866;-4.222;2023-02-03T15:07:38;0.10;;;0.10;;
44430;SDS011;30135;47.866;-4.222;2023-02-03T15:12:48;5.32;;;0.65;;
44430;SDS011;30135;47.866;-4.222;2023-02-03T15:15:20;1.10;;;0.30;;
44430;SDS011;30135;47.866;-4.222;2023-02-03T15:17:52;1.48;;;0.40;;
44430;SDS011;30135;47.866;-4.222;2023-02-03T15:23:18;1.52;;;0.30;;
44430;SDS011;30135;47.866;-4.222;2023-02-03T15:26:01;1.65;;;0.40;;
44430;SDS011;30135;47.866;-4.222;2023-02-03T15:28:36;1.90;;;0.45;;
44430;SDS011;30135;47.866;-4.222;2023-02-03T15:34:05;1.73;;;0.80;;
44430;SDS011;30135;47.866;-4.222;2023-02-03T15:39:57;2.00;;;0.50;;
44430;SDS011;30135;47.866;-4.222;2023-02-03T15:47:58;1.67;;;0.82;;
44430;SDS011;30135;47.866;-4.222;2023-02-03T15:50:52;5.07;;;0.88;;
44430;SDS011;30135;47.866;-4.222;2023-02-03T15:53:29;4.75;;;1.08;;
44430;SDS011;30135;47.866;-4.222;2023-02-03T15:56:03;2.75;;;0.50;;
44430;SDS011;30135;47.866;-4.222;2023-02-03T15:58:39;1.10;;;0.32;;
44430;SDS011;30135;47.866;-4.222;2023-02-03T16:01:11;2.70;;;0.77;;
44430;SDS011;30135;47.866;-4.222;2023-02-03T16:03:43;4.22;;;0.50;;
44430;SDS011;30135;47.866;-4.222;2023-02-03T16:09:05;3.05;;;0.20;;
44430;SDS011;30135;47.866;-4.222;2023-02-03T16:11:48;0.90;;;0.13;;
44430;SDS011;30135;47.866;-4.222;2023-02-03T16:14:30;2.50;;;0.50;;
44430;SDS011;30135;47.866;-4.222;2023-02-03T16:16:58;2.30;;;0.40;;
44430;SDS011;30135;47.866;-4.222;2023-02-03T16:19:27;0.82;;;0.43;;
44430;SDS011;30135;47.866;-4.222;2023-02-03T16:21:57;1.48;;;0.50;;
44430;SDS011;30135;47.866;-4.222;2023-02-03T16:24:40;0.30;;;0.10;;
44430;SDS011;30135;47.866;-4.222;2023-02-03T16:29:52;0.80;;;0.30;;
44430;SDS011;30135;47.866;-4.222;2023-02-03T16:35:52;5.30;;;0.68;;
44430;SDS011;30135;47.866;-4.222;2023-02-03T16:41:29;3.53;;;0.88;;
44430;SDS011;30135;47.866;-4.222;2023-02-03T16:44:18;4.10;;;1.92;;
44430;SDS011;30135;47.866;-4.222;2023-02-03T16:47:02;1.73;;;0.50;;
44430;SDS011;30135;47.866;-4.222;2023-02-03T16:50:21;1.83;;;0.40;;
44430;SDS011;30135;47.866;-4.222;2023-02-03T16:53:14;4.55;;;0.65;;
44430;SDS011;30135;47.866;-4.222;2023-02-03T16:55:44;4.05;;;0.73;;
44430;SDS011;30135;47.866;-4.222;2023-02-03T16:58:11;5.70;;;1.23;;
44430;SDS011;30135;47.866;-4.222;2023-02-03T17:00:42;2.58;;;0.75;;
44430;SDS011;30135;47.866;-4.222;2023-02-03T17:03:11;2.13;;;0.70;;
44430;SDS011;30135;47.866;-4.222;2023-02-03T17:05:40;0.65;;;0.35;;
44430;SDS011;30135;47.866;-4.222;2023-02-03T17:08:08;4.43;;;0.80;;
44430;SDS011;30135;47.866;-4.222;2023-02-03T17:10:35;0.73;;;0.57;;
44430;SDS011;30135;47.866;-4.222;2023-02-03T17:13:03;2.05;;;0.40;;
44430;SDS011;30135;47.866;-4.222;2023-02-03T17:15:30;3.92;;;0.80;;
44430;SDS011;30135;47.866;-4.222;2023-02-03T17:17:59;2.33;;;0.98;;
44430;SDS011;30135;47.866;-4.222;2023-02-03T17:20:25;3.85;;;0.77;;
44430;SDS011;30135;47.866;-4.222;2023-02-03T17:22:51;2.60;;;0.40;;
44430;SDS011;30135;47.866;-4.222;2023-02-03T17:25:19;6.38;;;1.00;;
44430;SDS011;30135;47.866;-4.222;2023-02-03T17:27:46;3.15;;;0.40;;
44430;SDS011;30135;47.866;-4.222;2023-02-03T17:30:12;5.70;;;0.47;;
44430;SDS011;30135;47.866;-4.222;2023-02-03T17:32:39;1.65;;;0.30;;
44430;SDS011;30135;47.866;-4.222;2023-02-03T17:35:05;1.23;;;0.45;;
44430;SDS011;30135;47.866;-4.222;2023-02-03T17:37:32;3.63;;;0.38;;
44430;SDS011;30135;47.866;-4.222;2023-02-03T17:39:59;2.75;;;0.45;;
44430;SDS011;30135;47.866;-4.222;2023-02-03T17:42:25;3.97;;;0.43;;
44430;SDS011;30135;47.866;-4.222;2023-02-03T17:44:52;5.35;;;1.05;;
44430;SDS011;30135;47.866;-4.222;2023-02-03T17:47:18;3.53;;;0.57;;
44430;SDS011;30135;47.866;-4.222;2023-02-03T17:49:44;4.57;;;0.50;;
44430;SDS011;30135;47.866;-4.222;2023-02-03T17:52:12;2.10;;;0.45;;
44430;SDS011;30135;47.866;-4.222;2023-02-03T17:54:38;2.35;;;0.38;;
44430;SDS011;30135;47.866;-4.222;2023-02-03T17:57:04;1.45;;;0.38;;
44430;SDS011;30135;47.866;-4.222;2023-02-03T17:59:30;2.00;;;0.50;;
44430;SDS011;30135;47.866;-4.222;2023-02-03T18:02:02;5.68;;;0.52;;
44430;SDS011;30135;47.866;-4.222;2023-02-03T18:04:28;2.70;;;0.50;;
44430;SDS011;30135;47.866;-4.222;2023-02-03T18:06:54;0.90;;;0.22;;
44430;SDS011;30135;47.866;-4.222;2023-02-03T18:09:20;0.22;;;0.20;;
44430;SDS011;30135;47.866;-4.222;2023-02-03T18:11:46;2.10;;;0.50;;
44430;SDS011;30135;47.866;-4.222;2023-02-03T18:14:18;1.95;;;0.35;;
44430;SDS011;30135;47.866;-4.222;2023-02-03T18:16:44;2.50;;;0.40;;
44430;SDS011;30135;47.866;-4.222;2023-02-03T18:19:12;2.35;;;0.35;;
44430;SDS011;30135;47.866;-4.222;2023-02-03T18:21:40;3.33;;;0.30;;
44430;SDS011;30135;47.866;-4.222;2023-02-03T18:24:08;1.83;;;0.68;;
44430;SDS011;30135;47.866;-4.222;2023-02-03T18:26:47;3.28;;;0.93;;
44430;SDS011;30135;47.866;-4.222;2023-02-03T18:29:22;2.90;;;0.77;;
44430;SDS011;30135;47.866;-4.222;2023-02-03T18:31:51;2.45;;;1.23;;
44430;SDS011;30135;47.866;-4.222;2023-02-03T18:34:18;1.67;;;0.68;;
44430;SDS011;30135;47.866;-4.222;2023-02-03T18:36:44;2.17;;;0.75;;
44430;SDS011;30135;47.866;-4.222;2023-02-03T18:39:12;4.53;;;0.80;;
44430;SDS011;30135;47.866;-4.222;2023-02-03T18:41:39;1.90;;;1.20;;
44430;SDS011;30135;47.866;-4.222;2023-02-03T18:44:05;2.97;;;0.80;;
44430;SDS011;30135;47.866;-4.222;2023-02-03T18:46:31;2.55;;;1.48;;
44430;SDS011;30135;47.866;-4.222;2023-02-03T18:48:58;5.25;;;0.90;;
44430;SDS011;30135;47.866;-4.222;2023-02-03T18:51:25;3.88;;;0.95;;
44430;SDS011;30135;47.866;-4.222;2023-02-03T18:53:56;4.18;;;1.20;;
44430;SDS011;30135;47.866;-4.222;2023-02-03T18:56:24;1.15;;;0.38;;
44430;SDS011;30135;47.866;-4.222;2023-02-03T18:58:59;1.85;;;0.40;;
44430;SDS011;30135;47.866;-4.222;2023-02-03T19:01:29;9.27;;;1.15;;
44430;SDS011;30135;47.866;-4.222;2023-02-03T19:04:03;2.13;;;0.82;;
44430;SDS011;30135;47.866;-4.222;2023-02-03T19:06:30;1.30;;;0.30;;
44430;SDS011;30135;47.866;-4.222;2023-02-03T19:08:58;1.88;;;0.60;;
44430;SDS011;30135;47.866;-4.222;2023-02-03T19:11:27;2.30;;;0.95;;
44430;SDS011;30135;47.866;-4.222;2023-02-03T19:13:54;7.20;;;1.00;;
44430;SDS011;30135;47.866;-4.222;2023-02-03T19:16:20;8.32;;;1.52;;
44430;SDS011;30135;47.866;-4.222;2023-02-03T19:18:46;7.32;;;1.75;;
44430;SDS011;30135;47.866;-4.222;2023-02-03T19:21:13;5.10;;;1.55;;
44430;SDS011;30135;47.866;-4.222;2023-02-03T19:23:39;8.95;;;1.98;;
44430;SDS011;30135;47.866;-4.222;2023-02-03T19:26:06;4.78;;;1.75;;
44430;SDS011;30135;47.866;-4.222;2023-02-03T19:28:34;5.97;;;2.67;;
44430;SDS011;30135;47.866;-4.222;2023-02-03T19:31:03;7.68;;;1.67;;
44430;SDS011;30135;47.866;-4.222;2023-02-03T19:33:35;5.38;;;1.42;;
44430;SDS011;30135;47.866;-4.222;2023-02-03T19:36:03;3.20;;;1.25;;
44430;SDS011;30135;47.866;-4.222;2023-02-03T19:38:30;3.63;;;1.13;;
44430;SDS011;30135;47.866;-4.222;2023-02-03T19:40:56;4.75;;;0.88;;
44430;SDS011;30135;47.866;-4.222;2023-02-03T19:43:22;3.47;;;0.60;;
44430;SDS011;30135;47.866;-4.222;2023-02-03T19:45:49;2.60;;;0.52;;
44430;SDS011;30135;47.866;-4.222;2023-02-03T19:48:15;10.48;;;1.27;;
44430;SDS011;30135;47.866;-4.222;2023-02-03T19:50:42;5.45;;;1.40;;
44430;SDS011;30135;47.866;-4.222;2023-02-03T19:53:14;8.25;;;1.42;;
44430;SDS011;30135;47.866;-4.222;2023-02-03T19:55:41;1.80;;;0.98;;
44430;SDS011;30135;47.866;-4.222;2023-02-03T19:58:08;6.88;;;1.13;;
44430;SDS011;30135;47.866;-4.222;2023-02-03T20:00:35;3.13;;;0.95;;
44430;SDS011;30135;47.866;-4.222;2023-02-03T20:03:01;4.80;;;1.25;;
44430;SDS011;30135;47.866;-4.222;2023-02-03T20:05:28;9.93;;;1.58;;
44430;SDS011;30135;47.866;-4.222;2023-02-03T20:07:54;4.18;;;1.60;;
44430;SDS011;30135;47.866;-4.222;2023-02-03T20:10:23;4.55;;;0.95;;
44430;SDS011;30135;47.866;-4.222;2023-02-03T20:12:53;1.85;;;0.80;;
44430;SDS011;30135;47.866;-4.222;2023-02-03T20:15:19;1.27;;;0.80;;
44430;SDS011;30135;47.866;-4.222;2023-02-03T20:17:46;3.10;;;0.98;;
44430;SDS011;30135;47.866;-4.222;2023-02-03T20:20:12;4.45;;;0.82;;
44430;SDS011;30135;47.866;-4.222;2023-02-03T20:22:39;6.13;;;0.73;;
44430;SDS011;30135;47.866;-4.222;2023-02-03T20:25:08;2.03;;;0.35;;
44430;SDS011;30135;47.866;-4.222;2023-02-03T20:27:34;1.75;;;0.80;;
44430;SDS011;30135;47.866;-4.222;2023-02-03T20:30:00;3.38;;;0.90;;
44430;SDS011;30135;47.866;-4.222;2023-02-03T20:32:28;5.85;;;1.13;;
44430;SDS011;30135;47.866;-4.222;2023-02-03T20:34:54;3.83;;;1.45;;
44430;SDS011;30135;47.866;-4.222;2023-02-03T20:37:20;2.00;;;1.10;;
44430;SDS011;30135;47.866;-4.222;2023-02-03T20:39:46;5.53;;;1.58;;
44430;SDS011;30135;47.866;-4.222;2023-02-03T20:42:13;2.35;;;1.38;;
44430;SDS011;30135;47.866;-4.222;2023-02-03T20:44:41;7.18;;;2.20;;
44430;SDS011;30135;47.866;-4.222;2023-02-03T20:47:09;7.15;;;2.28;;
44430;SDS011;30135;47.866;-4.222;2023-02-03T22:34:26;9.48;;;2.78;;
44430;SDS011;30135;47.866;-4.222;2023-02-03T22:37:02;8.35;;;2.85;;
44430;SDS011;30135;47.866;-4.222;2023-02-03T22:39:31;8.38;;;2.75;;
44430;SDS011;30135;47.866;-4.222;2023-02-03T22:41:57;6.82;;;2.15;;
44430;SDS011;30135;47.866;-4.222;2023-02-03T22:44:23;7.70;;;1.98;;
44430;SDS011;30135;47.866;-4.222;2023-02-03T22:46:49;9.38;;;2.38;;
44430;SDS011;30135;47.866;-4.222;2023-02-03T22:49:15;8.32;;;2.20;;
44430;SDS011;30135;47.866;-4.222;2023-02-03T22:51:41;8.73;;;2.97;;
44430;SDS011;30135;47.866;-4.222;2023-02-03T22:54:07;16.65;;;2.88;;
44430;SDS011;30135;47.866;-4.222;2023-02-03T22:56:33;12.02;;;2.80;;
44430;SDS011;30135;47.866;-4.222;2023-02-03T22:58:59;9.35;;;2.78;;
44430;SDS011;30135;47.866;-4.222;2023-02-03T23:01:25;14.10;;;3.05;;
44430;SDS011;30135;47.866;-4.222;2023-02-03T23:03:51;7.00;;;2.10;;
44430;SDS011;30135;47.866;-4.222;2023-02-03T23:06:17;7.07;;;2.35;;
44430;SDS011;30135;47.866;-4.222;2023-02-03T23:08:45;4.90;;;1.35;;
44430;SDS011;30135;47.866;-4.222;2023-02-03T23:11:11;6.22;;;1.67;;
44430;SDS011;30135;47.866;-4.222;2023-02-03T23:13:38;4.45;;;1.55;;
44430;SDS011;30135;47.866;-4.222;2023-02-03T23:16:04;9.25;;;1.70;;
44430;SDS011;30135;47.866;-4.222;2023-02-03T23:18:30;6.00;;;2.03;;
44430;SDS011;30135;47.866;-4.222;2023-02-03T23:20:56;7.93;;;1.65;;
44430;SDS011;30135;47.866;-4.222;2023-02-03T23:23:22;6.50;;;1.48;;
44430;SDS011;30135;47.866;-4.222;2023-02-03T23:25:48;4.10;;;1.30;;
44430;SDS011;30135;47.866;-4.222;2023-02-03T23:28:14;9.07;;;1.40;;
44430;SDS011;30135;47.866;-4.222;2023-02-03T23:30:40;4.22;;;2.20;;
44430;SDS011;30135;47.866;-4.222;2023-02-03T23:33:06;4.97;;;1.48;;
44430;SDS011;30135;47.866;-4.222;2023-02-03T23:35:32;4.45;;;1.33;;
44430;SDS011;30135;47.866;-4.222;2023-02-03T23:38:11;3.63;;;1.05;;
44430;SDS011;30135;47.866;-4.222;2023-02-03T23:40:39;2.80;;;0.70;;
44430;SDS011;30135;47.866;-4.222;2023-02-03T23:43:06;4.95;;;0.93;;
44430;SDS011;30135;47.866;-4.222;2023-02-03T23:45:32;4.35;;;0.95;;
44430;SDS011;30135;47.866;-4.222;2023-02-03T23:47:58;7.90;;;0.80;;
44430;SDS011;30135;47.866;-4.222;2023-02-03T23:50:24;3.00;;;0.90;;
44430;SDS011;30135;47.866;-4.222;2023-02-03T23:52:50;2.75;;;0.82;;
44430;SDS011;30135;47.866;-4.222;2023-02-03T23:55:17;3.33;;;1.02;;
44430;SDS011;30135;47.866;-4.222;2023-02-03T23:57:45;1.77;;;0.80;;
